logo
Search for airport 
image banner adimage banner adimage banner ad
image banner ad

YLGC - Lake Grace Airport

Located in Lake Grace, Australia

ICAO - YLGC, IATA -

Data provided by Airmate  

General information

Coordinates: S33°6'25" E118°23'23"
Elevation is 936 feet MSL.
Magnetic variation is -1° East
View others Airports in Western Australia

Operational data

Special qualification required
Current time UTC:
Current local time:
Weather at : - ( 0 km )
METAR: KAID 231859Z 27005KT 10SM SCT043/ SCT049/ BKN060 27/16 A3007
View NOTAMs / SUP AIP / TFR affecting this airport [VIEW]
Communications frequencies: [VIEW]

Runways:

RWY identifierQFULength (ft)Width (ft)SurfaceLDA (ft)
11104°395894DIRT
29284°395894DIRT

Airport contact information

Address: Lake Grace Australia

Satellite view of YLGC